Time;durP1;ratioP1;P1;durP2;ratioP2;P2;SDS_P1;SDS_P2;PMS_P1;PMS_P2;Temp;Humidity;BMP_temperature;BMP_pressure;BME280_temperature;BME280_humidity;BME280_pressure;Samples;Min_cycle;Max_cycle;Signal;HPM_P1;HPM_P2
2023/09/12 00:08:13;;;;;;;;;;;21.70;99.90;;;;;;8367826;28;20075;-70
2023/09/12 00:22:34;;;;;;;;;;;21.50;99.90;;;;;;8373760;28;20436;-70
2023/09/12 00:26:35;;;;;;;;;;;21.40;99.90;;;;;;8373421;28;19937;-70
2023/09/12 00:30:37;;;;;;;;;;;21.40;99.90;;;;;;8362397;28;19978;-70
2023/09/12 00:34:39;;;;;;;;;;;21.30;99.90;;;;;;8371789;28;19962;-70
2023/09/12 00:38:40;;;;;;;;;;;21.20;99.90;;;;;;8371692;28;19924;-70
2023/09/12 00:42:42;;;;;;;;;;;21.10;99.90;;;;;;8376795;28;19933;-70
2023/09/12 00:46:44;;;;;;;;;;;21.00;99.90;;;;;;8380662;28;19924;-70
2023/09/12 01:00:52;;;;;;;;;;;20.90;99.90;;;;;;8362816;28;19986;-70
2023/09/12 01:04:54;;;;;;;;;;;20.90;99.90;;;;;;8365348;28;19935;-70
2023/09/12 01:08:55;;;;;;;;;;;20.90;99.90;;;;;;8376037;28;20362;-70
2023/09/12 01:12:57;;;;;;;;;;;20.80;99.90;;;;;;8379107;28;19936;-70
2023/09/12 01:17:01;;;;;;;;;;;20.80;99.90;;;;;;8370862;28;19982;-70
2023/09/12 01:21:12;;;;;;;;;;;20.70;99.90;;;;;;8373931;28;20019;-70
2023/09/12 01:25:31;;;;;;;;;;;20.60;99.90;;;;;;8371558;28;19925;-70
2023/09/12 01:29:33;;;;;;;;;;;20.60;99.90;;;;;;8375060;28;19925;-70
2023/09/12 01:33:35;;;;;;;;;;;20.60;99.90;;;;;;8369015;28;19950;-70
2023/09/12 01:37:36;;;;;;;;;;;20.50;99.90;;;;;;8376947;28;19931;-70
2023/09/12 01:41:40;;;;;;;;;;;20.50;99.90;;;;;;8367792;28;19940;-70
2023/09/12 01:45:42;;;;;;;;;;;20.50;99.90;;;;;;8364746;28;19932;-70
2023/09/12 01:49:46;;;;;;;;;;;20.50;99.90;;;;;;8369093;28;20360;-70
2023/09/12 01:53:48;;;;;;;;;;;20.50;99.90;;;;;;8357219;28;19947;-70
2023/09/12 01:57:50;;;;;;;;;;;20.50;99.90;;;;;;8353547;28;20074;-70
2023/09/12 02:01:52;;;;;;;;;;;20.50;99.90;;;;;;8371537;28;19936;-70
2023/09/12 02:05:53;;;;;;;;;;;20.50;99.90;;;;;;8360834;28;20402;-70
2023/09/12 02:09:55;;;;;;;;;;;20.50;99.90;;;;;;8378051;28;20804;-70
2023/09/12 02:13:57;;;;;;;;;;;20.50;99.90;;;;;;8356603;28;19925;-70
2023/09/12 02:17:58;;;;;;;;;;;20.50;99.90;;;;;;8373145;28;19978;-70
2023/09/12 02:22:00;;;;;;;;;;;20.40;99.90;;;;;;8375221;28;20379;-70
2023/09/12 02:26:02;;;;;;;;;;;20.30;99.90;;;;;;8358249;28;20252;-70
2023/09/12 02:30:04;;;;;;;;;;;20.20;99.90;;;;;;8372239;28;19929;-70
2023/09/12 02:34:06;;;;;;;;;;;20.20;99.90;;;;;;8366735;28;19931;-70
2023/09/12 02:38:07;;;;;;;;;;;20.20;99.90;;;;;;8369953;28;19943;-70
2023/09/12 02:42:09;;;;;;;;;;;20.20;99.90;;;;;;8378379;28;20394;-70
2023/09/12 02:46:11;;;;;;;;;;;20.10;99.90;;;;;;8375321;28;19941;-71
2023/09/12 02:50:13;;;;;;;;;;;20.10;99.90;;;;;;8373079;28;20363;-70
2023/09/12 02:54:14;;;;;;;;;;;20.10;99.90;;;;;;8379793;28;19933;-70
2023/09/12 02:58:16;;;;;;;;;;;20.10;99.90;;;;;;8367522;28;19928;-70
2023/09/12 03:02:17;;;;;;;;;;;20.10;99.90;;;;;;8383653;28;20236;-70
2023/09/12 03:06:19;;;;;;;;;;;20.10;99.90;;;;;;8377110;28;19978;-70
2023/09/12 03:10:21;;;;;;;;;;;20.00;99.90;;;;;;8373978;28;20437;-70
2023/09/12 03:14:23;;;;;;;;;;;20.00;99.90;;;;;;8376299;28;20422;-70
2023/09/12 03:18:24;;;;;;;;;;;19.90;99.90;;;;;;8370106;28;20345;-70
2023/09/12 03:22:26;;;;;;;;;;;20.00;99.90;;;;;;8365638;28;19971;-70
2023/09/12 03:26:28;;;;;;;;;;;19.90;99.90;;;;;;8375655;28;19924;-70
2023/09/12 03:30:29;;;;;;;;;;;19.90;99.90;;;;;;8374255;28;19933;-70
2023/09/12 03:34:31;;;;;;;;;;;19.90;99.90;;;;;;8362869;28;19925;-70
2023/09/12 03:38:33;;;;;;;;;;;19.90;99.90;;;;;;8370878;28;19924;-70
2023/09/12 03:57:46;;;;;;;;;;;19.80;99.90;;;;;;8381314;28;19978;-70
2023/09/12 04:01:48;;;;;;;;;;;19.80;99.90;;;;;;8380166;28;20371;-70
2023/09/12 04:05:50;;;;;;;;;;;19.80;99.90;;;;;;8373572;28;19924;-70
2023/09/12 04:09:51;;;;;;;;;;;19.80;99.90;;;;;;8372183;28;19929;-70
2023/09/12 04:13:53;;;;;;;;;;;19.70;99.90;;;;;;8388652;28;19925;-70
2023/09/12 04:17:55;;;;;;;;;;;19.70;99.90;;;;;;8361922;28;19935;-70
2023/09/12 04:21:56;;;;;;;;;;;19.70;99.90;;;;;;8372420;28;19932;-70
2023/09/12 04:26:03;;;;;;;;;;;19.70;99.90;;;;;;8380687;28;19931;-70
2023/09/12 04:30:05;;;;;;;;;;;19.70;99.90;;;;;;8383578;28;19932;-70
2023/09/12 04:34:06;;;;;;;;;;;19.70;99.90;;;;;;8357732;28;19932;-70
2023/09/12 04:38:08;;;;;;;;;;;19.60;99.90;;;;;;8367896;28;19929;-70
2023/09/12 04:42:10;;;;;;;;;;;19.60;99.90;;;;;;8380679;28;20150;-70
2023/09/12 04:46:12;;;;;;;;;;;19.60;99.90;;;;;;8372921;28;19925;-70
2023/09/12 04:50:13;;;;;;;;;;;19.60;99.90;;;;;;8365648;28;19931;-70
2023/09/12 04:54:15;;;;;;;;;;;19.50;99.90;;;;;;8378606;28;20425;-70
2023/09/12 04:58:17;;;;;;;;;;;19.40;99.90;;;;;;8368004;28;19968;-70
2023/09/12 05:02:18;;;;;;;;;;;19.40;99.90;;;;;;8365753;28;19924;-70
2023/09/12 05:06:20;;;;;;;;;;;19.40;99.90;;;;;;8373681;28;19925;-70
2023/09/12 05:10:21;;;;;;;;;;;19.40;99.90;;;;;;8376436;28;20364;-70
2023/09/12 05:14:23;;;;;;;;;;;19.30;99.90;;;;;;8372764;28;19924;-70
2023/09/12 05:18:25;;;;;;;;;;;19.30;99.90;;;;;;8361479;28;19931;-70
2023/09/12 05:22:27;;;;;;;;;;;19.30;99.90;;;;;;8378437;28;19924;-70
2023/09/12 05:26:29;;;;;;;;;;;19.20;99.90;;;;;;8374030;28;19924;-70
2023/09/12 05:30:31;;;;;;;;;;;19.20;99.90;;;;;;8379489;28;19925;-70
2023/09/12 05:34:32;;;;;;;;;;;19.20;99.90;;;;;;8376376;28;20398;-70
2023/09/12 05:38:34;;;;;;;;;;;19.20;99.90;;;;;;8380256;28;20360;-70
2023/09/12 05:42:36;;;;;;;;;;;19.10;99.90;;;;;;8376169;28;19932;-70
2023/09/12 05:46:37;;;;;;;;;;;19.10;99.90;;;;;;8377903;28;19925;-70
2023/09/12 05:50:39;;;;;;;;;;;19.10;99.90;;;;;;8370046;28;20307;-70
2023/09/12 05:54:41;;;;;;;;;;;19.10;99.90;;;;;;8375433;28;20299;-70
2023/09/12 05:58:44;;;;;;;;;;;19.10;99.90;;;;;;8369503;28;19929;-70
2023/09/12 06:02:46;;;;;;;;;;;19.10;99.90;;;;;;8377154;28;19938;-70
2023/09/12 06:06:48;;;;;;;;;;;19.10;99.90;;;;;;8372911;28;20316;-70
2023/09/12 06:10:53;;;;;;;;;;;19.10;99.90;;;;;;8363138;28;20391;-70
2023/09/12 06:14:55;;;;;;;;;;;19.00;99.90;;;;;;8383877;28;19929;-70
2023/09/12 06:18:57;;;;;;;;;;;19.10;99.90;;;;;;8368526;28;19925;-70
2023/09/12 06:22:59;;;;;;;;;;;19.00;99.90;;;;;;8355001;28;19931;-70
2023/09/12 06:27:01;;;;;;;;;;;19.00;99.90;;;;;;8370223;28;20465;-70
2023/09/12 06:31:02;;;;;;;;;;;19.00;99.90;;;;;;8361196;28;19924;-70
2023/09/12 06:35:04;;;;;;;;;;;19.00;99.90;;;;;;8370890;28;20311;-70
2023/09/12 06:39:06;;;;;;;;;;;19.00;99.90;;;;;;8377173;28;19925;-70
2023/09/12 06:43:07;;;;;;;;;;;19.10;99.90;;;;;;8376001;28;19928;-70
2023/09/12 06:47:10;;;;;;;;;;;19.10;99.90;;;;;;8371553;28;19932;-70
2023/09/12 06:51:12;;;;;;;;;;;19.20;99.90;;;;;;8365513;28;20376;-70
2023/09/12 06:55:18;;;;;;;;;;;19.30;99.90;;;;;;8371930;28;20387;-70
2023/09/12 06:59:21;;;;;;;;;;;19.30;99.90;;;;;;8361668;28;19936;-70
2023/09/12 07:03:23;;;;;;;;;;;19.40;99.90;;;;;;8374763;28;20299;-70
2023/09/12 07:07:24;;;;;;;;;;;19.40;99.90;;;;;;8372663;28;19925;-70
2023/09/12 07:11:26;;;;;;;;;;;19.40;99.90;;;;;;8360794;28;20387;-70
2023/09/12 07:15:28;;;;;;;;;;;19.50;99.90;;;;;;8369063;28;20008;-70
2023/09/12 07:19:29;;;;;;;;;;;19.50;99.90;;;;;;8375550;28;19925;-70
2023/09/12 07:23:32;;;;;;;;;;;19.60;99.90;;;;;;8380713;28;19929;-70
2023/09/12 07:27:34;;;;;;;;;;;19.60;99.90;;;;;;8378262;28;19943;-70
2023/09/12 07:31:35;;;;;;;;;;;19.60;99.90;;;;;;8371875;28;19925;-70
2023/09/12 07:35:37;;;;;;;;;;;19.60;99.90;;;;;;8366995;28;19925;-70
2023/09/12 07:39:39;;;;;;;;;;;19.70;99.90;;;;;;8367678;28;19925;-70
2023/09/12 07:43:40;;;;;;;;;;;19.70;99.90;;;;;;8366323;28;19970;-70
2023/09/12 07:47:42;;;;;;;;;;;19.80;99.90;;;;;;8377191;28;19966;-70
2023/09/12 07:51:44;;;;;;;;;;;19.90;99.90;;;;;;8367833;28;19928;-70
2023/09/12 07:55:46;;;;;;;;;;;20.00;99.90;;;;;;8375405;28;20422;-70
2023/09/12 07:59:48;;;;;;;;;;;20.00;99.90;;;;;;8366030;28;19924;-70
2023/09/12 08:03:50;;;;;;;;;;;20.10;99.90;;;;;;8369641;28;19928;-70
2023/09/12 08:07:52;;;;;;;;;;;20.20;99.90;;;;;;8362226;28;19924;-70
2023/09/12 08:11:53;;;;;;;;;;;20.40;99.90;;;;;;8361639;28;20321;-70
2023/09/12 08:15:55;;;;;;;;;;;20.50;99.90;;;;;;8377119;28;19924;-70
2023/09/12 08:19:57;;;;;;;;;;;20.50;99.90;;;;;;8367816;28;19930;-70
2023/09/12 08:23:59;;;;;;;;;;;20.60;99.90;;;;;;8369832;28;19924;-70
2023/09/12 08:28:00;;;;;;;;;;;20.60;99.90;;;;;;8370480;28;20354;-70
2023/09/12 08:32:02;;;;;;;;;;;20.70;99.90;;;;;;8381563;28;19924;-70
2023/09/12 08:36:04;;;;;;;;;;;20.70;99.90;;;;;;8367455;28;19925;-70
2023/09/12 08:40:08;;;;;;;;;;;20.80;99.90;;;;;;8363623;28;19947;-70
2023/09/12 08:44:10;;;;;;;;;;;20.90;99.90;;;;;;8365674;28;19932;-70
2023/09/12 08:48:12;;;;;;;;;;;21.00;99.90;;;;;;8360347;28;19928;-70
2023/09/12 08:52:14;;;;;;;;;;;21.00;99.90;;;;;;8362495;28;19935;-70
2023/09/12 08:56:16;;;;;;;;;;;21.00;99.90;;;;;;8366810;28;19925;-70
2023/09/12 09:00:19;;;;;;;;;;;21.00;99.90;;;;;;8372141;28;19925;-70
2023/09/12 09:04:22;;;;;;;;;;;21.20;99.90;;;;;;8364827;28;21065;-71
2023/09/12 09:08:23;;;;;;;;;;;21.30;99.90;;;;;;8376538;28;19924;-70
2023/09/12 09:12:26;;;;;;;;;;;21.40;99.90;;;;;;8358307;28;19925;-70
2023/09/12 09:16:28;;;;;;;;;;;21.50;99.90;;;;;;8369776;28;19928;-70
2023/09/12 09:20:31;;;;;;;;;;;21.60;99.90;;;;;;8366317;28;20368;-70
2023/09/12 09:24:32;;;;;;;;;;;21.50;99.90;;;;;;8371938;28;19978;-71
2023/09/12 09:28:35;;;;;;;;;;;21.50;99.90;;;;;;8365797;28;19932;-71
2023/09/12 09:32:37;;;;;;;;;;;21.50;99.90;;;;;;8366049;28;19925;-70
2023/09/12 09:36:42;;;;;;;;;;;21.60;99.90;;;;;;8367146;28;19943;-70
2023/09/12 09:40:44;;;;;;;;;;;21.60;99.90;;;;;;8371065;28;19932;-70
2023/09/12 09:44:47;;;;;;;;;;;21.60;99.90;;;;;;8370249;28;19932;-70
2023/09/12 09:48:50;;;;;;;;;;;21.60;99.90;;;;;;8380170;28;19936;-70
2023/09/12 09:57:54;;;;;;;;;;;21.70;99.90;;;;;;8360208;28;20463;-71
2023/09/12 10:01:57;;;;;;;;;;;21.80;99.90;;;;;;8366853;28;20295;-70
2023/09/12 10:06:01;;;;;;;;;;;21.90;99.90;;;;;;8360614;28;20410;-70
2023/09/12 10:10:04;;;;;;;;;;;21.90;99.90;;;;;;8380142;28;19924;-70
2023/09/12 10:14:06;;;;;;;;;;;21.90;99.90;;;;;;8368091;28;20272;-70
2023/09/12 10:18:09;;;;;;;;;;;22.00;99.90;;;;;;8369006;28;19970;-70
2023/09/12 10:22:33;;;;;;;;;;;22.00;99.90;;;;;;8380027;28;19925;-71
2023/09/12 10:26:35;;;;;;;;;;;22.00;99.90;;;;;;8382041;28;19925;-70
2023/09/12 10:30:37;;;;;;;;;;;22.10;99.90;;;;;;8364900;28;19925;-70
2023/09/12 10:34:39;;;;;;;;;;;22.20;99.90;;;;;;8375760;28;19925;-70
2023/09/12 10:38:44;;;;;;;;;;;22.30;99.90;;;;;;8372168;28;20329;-70
2023/09/12 10:42:46;;;;;;;;;;;22.50;99.90;;;;;;8372064;28;19925;-70
2023/09/12 10:46:49;;;;;;;;;;;22.50;99.90;;;;;;8366431;28;19924;-71
2023/09/12 10:50:50;;;;;;;;;;;22.50;99.90;;;;;;8373196;28;19971;-71
2023/09/12 10:54:52;;;;;;;;;;;22.50;99.90;;;;;;8379600;28;19925;-70
2023/09/12 10:59:10;;;;;;;;;;;22.50;99.90;;;;;;8370102;28;19931;-70
2023/09/12 11:03:26;;;;;;;;;;;22.50;99.90;;;;;;8373638;28;19935;-70
2023/09/12 11:07:40;;;;;;;;;;;22.60;99.90;;;;;;8366230;28;19925;-70
2023/09/12 11:11:42;;;;;;;;;;;22.60;99.90;;;;;;8372781;28;19947;-70
2023/09/12 11:16:03;;;;;;;;;;;22.60;99.90;;;;;;8379822;28;19935;-70
2023/09/12 11:20:12;;;;;;;;;;;22.70;99.90;;;;;;8368662;28;19931;-70
2023/09/12 11:24:14;;;;;;;;;;;22.90;99.90;;;;;;8378403;28;19932;-70
2023/09/12 11:28:15;;;;;;;;;;;23.10;99.90;;;;;;8365533;28;19932;-70
2023/09/12 11:32:30;;;;;;;;;;;23.20;99.90;;;;;;8372703;28;19925;-70
2023/09/12 11:36:37;;;;;;;;;;;23.20;99.90;;;;;;8374899;28;19933;-70
2023/09/12 11:40:39;;;;;;;;;;;23.20;99.90;;;;;;8374660;28;19978;-70
2023/09/12 11:44:41;;;;;;;;;;;23.30;99.90;;;;;;8367281;28;19982;-70
2023/09/12 11:48:42;;;;;;;;;;;23.30;99.90;;;;;;8371041;28;19932;-70
2023/09/12 11:52:44;;;;;;;;;;;23.30;99.90;;;;;;8364851;28;20449;-70
2023/09/12 11:56:46;;;;;;;;;;;23.50;99.90;;;;;;8362216;28;19925;-70
2023/09/12 12:00:49;;;;;;;;;;;23.60;99.90;;;;;;8370759;28;20362;-71
2023/09/12 12:04:53;;;;;;;;;;;23.70;99.90;;;;;;8375586;28;19925;-70
2023/09/12 12:08:55;;;;;;;;;;;23.70;99.90;;;;;;8367910;28;19954;-70
2023/09/12 12:12:57;;;;;;;;;;;23.80;99.90;;;;;;8376167;28;19978;-70
2023/09/12 12:17:04;;;;;;;;;;;23.80;99.90;;;;;;8360584;28;19960;-70
2023/09/12 12:21:06;;;;;;;;;;;24.00;99.90;;;;;;8375373;28;19960;-70
2023/09/12 12:25:09;;;;;;;;;;;24.00;99.90;;;;;;8373969;28;19925;-70
2023/09/12 12:29:11;;;;;;;;;;;24.00;99.90;;;;;;8351397;28;20380;-70
2023/09/12 12:33:12;;;;;;;;;;;24.00;99.90;;;;;;8366889;28;20372;-70
2023/09/12 12:37:35;;;;;;;;;;;24.10;99.90;;;;;;8352455;28;19929;-70
2023/09/12 12:41:37;;;;;;;;;;;24.10;99.90;;;;;;8365605;28;19924;-70
2023/09/12 12:45:52;;;;;;;;;;;24.10;99.90;;;;;;8371294;28;20378;-70
2023/09/12 12:49:54;;;;;;;;;;;24.10;99.90;;;;;;8369264;28;19928;-70
2023/09/12 12:54:07;;;;;;;;;;;24.20;99.90;;;;;;8373136;28;20376;-70
2023/09/12 12:58:09;;;;;;;;;;;24.20;99.90;;;;;;8363379;28;19928;-70
2023/09/12 13:02:11;;;;;;;;;;;24.30;99.90;;;;;;8374633;28;19924;-70
2023/09/12 13:06:16;;;;;;;;;;;24.30;99.90;;;;;;8368504;28;19924;-71
2023/09/12 13:10:19;;;;;;;;;;;24.30;99.90;;;;;;8366870;28;19932;-70
2023/09/12 13:14:25;;;;;;;;;;;24.40;99.90;;;;;;8369275;28;20295;-70
2023/09/12 13:18:26;;;;;;;;;;;24.40;99.90;;;;;;8378994;28;19928;-70
2023/09/12 13:22:28;;;;;;;;;;;24.40;99.90;;;;;;8368277;28;20367;-70
2023/09/12 13:26:30;;;;;;;;;;;24.50;99.90;;;;;;8371788;28;20368;-70
2023/09/12 13:30:32;;;;;;;;;;;24.50;99.90;;;;;;8366279;28;20462;-70
2023/09/12 13:34:34;;;;;;;;;;;24.60;99.90;;;;;;8363294;28;20436;-71
2023/09/12 13:38:36;;;;;;;;;;;24.60;99.90;;;;;;8360973;28;19925;-70
2023/09/12 13:42:37;;;;;;;;;;;24.70;99.90;;;;;;8374975;28;19957;-71
2023/09/12 13:46:39;;;;;;;;;;;24.80;99.90;;;;;;8377750;28;20332;-71
2023/09/12 13:50:43;;;;;;;;;;;24.80;99.90;;;;;;8380712;28;19956;-71
2023/09/12 13:54:44;;;;;;;;;;;24.90;99.90;;;;;;8364337;28;19933;-70
2023/09/12 13:58:46;;;;;;;;;;;25.00;99.90;;;;;;8368671;28;19929;-71
2023/09/12 14:02:50;;;;;;;;;;;25.00;99.90;;;;;;8367475;28;19925;-71
2023/09/12 14:06:52;;;;;;;;;;;25.00;99.90;;;;;;8370001;28;19935;-70
2023/09/12 14:10:55;;;;;;;;;;;24.90;99.90;;;;;;8349533;28;19975;-71
2023/09/12 14:14:56;;;;;;;;;;;25.00;99.90;;;;;;8376720;28;19925;-70
2023/09/12 14:19:10;;;;;;;;;;;25.00;99.90;;;;;;8364852;28;21284;-70
2023/09/12 14:23:12;;;;;;;;;;;25.00;99.90;;;;;;8377999;28;19925;-70
2023/09/12 14:27:14;;;;;;;;;;;24.80;99.90;;;;;;8382538;28;19970;-71
2023/09/12 14:31:26;;;;;;;;;;;24.60;99.90;;;;;;8356125;28;19960;-71
2023/09/12 14:35:28;;;;;;;;;;;24.50;99.90;;;;;;8379882;28;19925;-71
2023/09/12 14:39:30;;;;;;;;;;;24.40;99.90;;;;;;8371352;28;19939;-71
2023/09/12 14:43:32;;;;;;;;;;;24.40;99.90;;;;;;8371733;28;20291;-70
2023/09/12 14:47:33;;;;;;;;;;;24.40;99.90;;;;;;8364904;28;19931;-71
2023/09/12 14:51:35;;;;;;;;;;;24.50;99.90;;;;;;8367041;28;19924;-70
2023/09/12 14:55:37;;;;;;;;;;;24.70;99.90;;;;;;8377348;28;19925;-71
2023/09/12 14:59:38;;;;;;;;;;;24.70;99.90;;;;;;8385085;28;19970;-71
2023/09/12 15:03:40;;;;;;;;;;;24.70;99.90;;;;;;8369919;28;19929;-71
2023/09/12 15:07:42;;;;;;;;;;;24.80;99.90;;;;;;8372343;28;19925;-71
2023/09/12 15:11:44;;;;;;;;;;;24.80;99.90;;;;;;8378040;28;19935;-71
2023/09/12 15:15:45;;;;;;;;;;;24.80;99.90;;;;;;8383408;28;19924;-71
2023/09/12 15:19:47;;;;;;;;;;;24.70;99.90;;;;;;8380293;28;20253;-71
2023/09/12 15:23:49;;;;;;;;;;;24.60;99.90;;;;;;8374961;28;19952;-71
2023/09/12 15:27:50;;;;;;;;;;;24.50;99.90;;;;;;8379656;28;19944;-71
2023/09/12 15:31:53;;;;;;;;;;;24.50;99.90;;;;;;8372020;28;19932;-71
2023/09/12 15:35:55;;;;;;;;;;;24.60;99.90;;;;;;8376217;28;20399;-71
2023/09/12 15:39:56;;;;;;;;;;;24.70;99.90;;;;;;8379220;28;19924;-71
2023/09/12 15:43:58;;;;;;;;;;;24.80;99.90;;;;;;8358186;28;20350;-71
2023/09/12 15:48:14;;;;;;;;;;;24.70;99.90;;;;;;8374001;28;20376;-71
2023/09/12 15:52:16;;;;;;;;;;;24.70;99.90;;;;;;8378323;28;20376;-71
2023/09/12 15:56:17;;;;;;;;;;;24.70;99.90;;;;;;8378964;28;19924;-71
2023/09/12 16:00:19;;;;;;;;;;;24.70;99.90;;;;;;8381641;28;19935;-71
2023/09/12 16:04:21;;;;;;;;;;;24.70;99.90;;;;;;8379384;28;20014;-71
2023/09/12 16:08:23;;;;;;;;;;;24.70;99.90;;;;;;8383805;28;20007;-71
2023/09/12 16:12:25;;;;;;;;;;;24.60;99.90;;;;;;8380946;28;19933;-71
2023/09/12 16:16:27;;;;;;;;;;;24.50;99.90;;;;;;8376048;28;19924;-70
2023/09/12 16:20:28;;;;;;;;;;;24.40;99.90;;;;;;8370952;28;20019;-71
2023/09/12 16:39:35;;;;;;;;;;;24.00;99.90;;;;;;8373563;28;19958;-71
2023/09/12 16:43:37;;;;;;;;;;;23.90;99.90;;;;;;8376687;28;19960;-71
2023/09/12 16:47:39;;;;;;;;;;;23.80;99.90;;;;;;8353109;28;19924;-71
2023/09/12 16:51:41;;;;;;;;;;;23.80;99.90;;;;;;8363684;28;19965;-71
2023/09/12 16:55:43;;;;;;;;;;;23.70;99.90;;;;;;8356464;28;19978;-71
2023/09/12 16:59:45;;;;;;;;;;;23.60;99.90;;;;;;8350706;28;19936;-71
2023/09/12 17:03:46;;;;;;;;;;;23.70;99.90;;;;;;8378044;28;19928;-70
2023/09/12 17:07:48;;;;;;;;;;;23.60;99.90;;;;;;8373536;28;19964;-71
2023/09/12 17:11:50;;;;;;;;;;;23.60;99.90;;;;;;8375360;28;20395;-71
2023/09/12 17:15:52;;;;;;;;;;;23.60;99.90;;;;;;8368866;28;19925;-71
2023/09/12 17:19:55;;;;;;;;;;;23.60;99.90;;;;;;8364904;28;19970;-70
2023/09/12 17:23:57;;;;;;;;;;;23.60;99.90;;;;;;8371882;28;19924;-71
2023/09/12 17:27:58;;;;;;;;;;;23.60;99.90;;;;;;8370274;28;20404;-71
2023/09/12 17:32:07;;;;;;;;;;;23.50;99.90;;;;;;8372609;28;20010;-71
2023/09/12 17:36:09;;;;;;;;;;;23.50;99.90;;;;;;8372088;28;19975;-71
2023/09/12 17:40:11;;;;;;;;;;;23.50;99.90;;;;;;8367841;28;19933;-71
2023/09/12 17:44:12;;;;;;;;;;;23.50;99.90;;;;;;8375676;28;19929;-71
2023/09/12 18:03:19;;;;;;;;;;;23.30;99.90;;;;;;8369796;28;19923;-71
2023/09/12 18:07:21;;;;;;;;;;;23.30;99.90;;;;;;8373548;28;19928;-71
2023/09/12 18:11:22;;;;;;;;;;;23.20;99.90;;;;;;8370612;28;19928;-71
2023/09/12 18:15:24;;;;;;;;;;;23.20;99.90;;;;;;8367502;28;19928;-71
2023/09/12 18:19:26;;;;;;;;;;;23.20;99.90;;;;;;8374420;28;19929;-71
2023/09/12 18:23:28;;;;;;;;;;;23.10;99.90;;;;;;8377682;28;19925;-70
2023/09/12 18:42:40;;;;;;;;;;;23.10;99.90;;;;;;8376477;28;19928;-71
2023/09/12 18:46:42;;;;;;;;;;;23.10;99.90;;;;;;8382755;28;19925;-70
2023/09/12 18:50:46;;;;;;;;;;;23.00;99.90;;;;;;8377058;28;19928;-70
2023/09/12 18:54:48;;;;;;;;;;;23.00;99.90;;;;;;8378028;28;19929;-70
2023/09/12 18:58:49;;;;;;;;;;;23.00;99.90;;;;;;8375930;28;19931;-70
2023/09/12 19:02:51;;;;;;;;;;;23.00;99.90;;;;;;8368716;28;20686;-70
2023/09/12 19:06:53;;;;;;;;;;;23.00;99.90;;;;;;8376118;28;19925;-71
2023/09/12 19:10:54;;;;;;;;;;;22.90;99.90;;;;;;8382242;28;20010;-70
2023/09/12 19:14:56;;;;;;;;;;;22.90;99.90;;;;;;8371307;28;19925;-70
2023/09/12 19:18:58;;;;;;;;;;;22.90;99.90;;;;;;8377332;28;20279;-70
2023/09/12 19:22:59;;;;;;;;;;;22.80;99.90;;;;;;8375063;28;19925;-70
2023/09/12 19:27:03;;;;;;;;;;;22.80;99.90;;;;;;8362296;28;20434;-70
2023/09/12 19:31:04;;;;;;;;;;;22.80;99.90;;;;;;8352031;28;19925;-70
2023/09/12 19:35:07;;;;;;;;;;;22.80;99.90;;;;;;8370393;28;19978;-70
2023/09/12 19:39:08;;;;;;;;;;;22.80;99.90;;;;;;8382747;28;19932;-70
2023/09/12 19:43:10;;;;;;;;;;;22.80;99.90;;;;;;8367828;28;19932;-71
2023/09/12 19:47:12;;;;;;;;;;;22.70;99.90;;;;;;8372093;28;20429;-70
2023/09/12 19:51:15;;;;;;;;;;;22.70;99.90;;;;;;8367189;28;20014;-70
2023/09/12 19:55:17;;;;;;;;;;;22.70;99.90;;;;;;8370323;28;20291;-70
2023/09/12 19:59:18;;;;;;;;;;;22.70;99.90;;;;;;8378851;28;19924;-70
2023/09/12 20:03:20;;;;;;;;;;;22.70;99.90;;;;;;8370420;28;19928;-70
2023/09/12 20:07:22;;;;;;;;;;;22.70;99.90;;;;;;8369492;28;20283;-70
2023/09/12 20:11:23;;;;;;;;;;;22.60;99.90;;;;;;8372853;28;19931;-70
2023/09/12 20:15:25;;;;;;;;;;;22.60;99.90;;;;;;8352893;28;20363;-70
2023/09/12 20:19:27;;;;;;;;;;;22.60;99.90;;;;;;8359778;28;19928;-70
2023/09/12 20:23:28;;;;;;;;;;;22.60;99.90;;;;;;8369440;28;20268;-70
2023/09/12 20:27:30;;;;;;;;;;;22.60;99.90;;;;;;8370234;28;20398;-70
2023/09/12 20:31:32;;;;;;;;;;;22.50;99.90;;;;;;8366406;28;19929;-70
2023/09/12 20:35:34;;;;;;;;;;;22.50;99.90;;;;;;8367394;28;20062;-70
2023/09/12 20:39:36;;;;;;;;;;;22.50;99.90;;;;;;8365662;28;19932;-70
2023/09/12 20:43:38;;;;;;;;;;;22.50;99.90;;;;;;8372839;28;19943;-70
2023/09/12 20:47:40;;;;;;;;;;;22.50;99.90;;;;;;8373689;28;19925;-70
2023/09/12 20:51:46;;;;;;;;;;;22.40;99.90;;;;;;8368617;28;19931;-70
2023/09/12 20:55:47;;;;;;;;;;;22.40;99.90;;;;;;8372024;28;19924;-70
2023/09/12 20:59:49;;;;;;;;;;;22.40;99.90;;;;;;8356906;28;19925;-70
2023/09/12 21:03:51;;;;;;;;;;;22.40;99.90;;;;;;8346400;28;19924;-70
2023/09/12 21:07:52;;;;;;;;;;;22.40;99.90;;;;;;8372560;28;20311;-70
2023/09/12 21:11:54;;;;;;;;;;;22.30;99.90;;;;;;8362962;28;19925;-70
2023/09/12 21:15:56;;;;;;;;;;;22.30;99.90;;;;;;8373716;28;19960;-70
2023/09/12 21:19:58;;;;;;;;;;;22.20;99.90;;;;;;8365031;28;19978;-70
2023/09/12 21:24:00;;;;;;;;;;;22.20;99.90;;;;;;8377319;28;19924;-70
2023/09/12 21:28:02;;;;;;;;;;;22.10;99.90;;;;;;8374132;28;19925;-70
2023/09/12 21:32:04;;;;;;;;;;;22.10;99.90;;;;;;8374086;28;19929;-70
2023/09/12 21:36:06;;;;;;;;;;;22.10;99.90;;;;;;8365597;28;19983;-70
2023/09/12 21:40:08;;;;;;;;;;;22.10;99.90;;;;;;8373218;28;19925;-70
2023/09/12 21:44:10;;;;;;;;;;;22.00;99.90;;;;;;8349482;28;19924;-70
2023/09/12 21:48:11;;;;;;;;;;;22.00;99.90;;;;;;8363451;28;19935;-70
2023/09/12 21:52:13;;;;;;;;;;;21.80;99.90;;;;;;8373699;28;19929;-70
2023/09/12 21:56:15;;;;;;;;;;;21.70;99.90;;;;;;8354909;28;20023;-70
2023/09/12 22:00:23;;;;;;;;;;;21.50;99.90;;;;;;8373040;28;19925;-70
2023/09/12 22:04:25;;;;;;;;;;;21.40;99.90;;;;;;8365486;28;20011;-69
2023/09/12 22:08:26;;;;;;;;;;;21.40;99.90;;;;;;8371424;28;20394;-70
2023/09/12 22:12:28;;;;;;;;;;;21.40;99.90;;;;;;8384902;28;19925;-70
2023/09/12 22:16:29;;;;;;;;;;;21.40;99.90;;;;;;8375302;28;19932;-70
2023/09/12 22:20:31;;;;;;;;;;;21.40;99.90;;;;;;8370696;28;19925;-70
2023/09/12 22:24:33;;;;;;;;;;;21.50;99.90;;;;;;8376446;28;19932;-70
2023/09/12 22:28:36;;;;;;;;;;;21.50;99.90;;;;;;8385445;28;19932;-70
2023/09/12 22:32:38;;;;;;;;;;;21.50;99.90;;;;;;8381678;28;19932;-70
2023/09/12 22:36:39;;;;;;;;;;;21.50;99.90;;;;;;8382479;28;20394;-70
2023/09/12 22:40:41;;;;;;;;;;;21.50;99.90;;;;;;8380209;28;19939;-70
2023/09/12 22:44:43;;;;;;;;;;;21.50;99.90;;;;;;8374991;28;19932;-70
2023/09/12 22:48:44;;;;;;;;;;;21.50;99.90;;;;;;8377660;28;19947;-69
2023/09/12 22:52:46;;;;;;;;;;;21.40;99.90;;;;;;8377180;28;19935;-70
2023/09/12 22:56:48;;;;;;;;;;;21.40;99.90;;;;;;8375780;28;19931;-69
2023/09/12 23:00:50;;;;;;;;;;;21.40;99.90;;;;;;8374172;28;19924;-69
2023/09/12 23:04:52;;;;;;;;;;;21.40;99.90;;;;;;8356976;28;19933;-69
2023/09/12 23:08:54;;;;;;;;;;;21.40;99.90;;;;;;8381748;28;20333;-70
2023/09/12 23:12:55;;;;;;;;;;;21.40;99.90;;;;;;8374197;28;20576;-70
2023/09/12 23:16:57;;;;;;;;;;;21.40;99.90;;;;;;8359238;28;19979;-70
2023/09/12 23:20:59;;;;;;;;;;;21.30;99.90;;;;;;8381299;28;19924;-70
2023/09/12 23:25:00;;;;;;;;;;;21.30;99.90;;;;;;8382951;28;19929;-70
2023/09/12 23:29:02;;;;;;;;;;;21.20;99.90;;;;;;8375108;28;19935;-69
2023/09/12 23:33:04;;;;;;;;;;;21.20;99.90;;;;;;8372283;28;19971;-69
2023/09/12 23:37:05;;;;;;;;;;;21.20;99.90;;;;;;8378800;28;20283;-69
2023/09/12 23:41:07;;;;;;;;;;;21.10;99.90;;;;;;8355224;28;20343;-70
2023/09/12 23:45:09;;;;;;;;;;;21.00;99.90;;;;;;8377450;28;19931;-69
2023/09/12 23:49:11;;;;;;;;;;;21.00;99.90;;;;;;8367703;28;20569;-69
2023/09/12 23:53:13;;;;;;;;;;;20.90;99.90;;;;;;8382096;28;19943;-70
2023/09/12 23:57:14;;;;;;;;;;;20.80;99.90;;;;;;8368554;28;19990;-69
